Terminal Aerodrome Forecast
Issued by NWS Knoxville/Tri Cities, TN

Home | Current Version | Previous Version | Text Only | Print | Product List | Glossary On
Versions: 1 2 3 4 5 6 7 8 9 10 11 12 13 14 15 16 17 18 19 20 21 22 23 24 25 26 27 28 29 30 31
075
FTUS44 KMRX 271720
TAFCHA
TAF
KCHA 271720Z 2718/2818 19010KT P6SM SCT025 BKN030
     FM272100 19007KT P6SM VCTS BKN040CB
     FM280400 21005KT 4SM -RA VCTS OVC020CB
     FM280800 21003KT P6SM VCSH OVC020
     FM281500 24005KT P6SM BKN015=

USA.gov is the U.S. government's official web portal to all federal, state and local government web resources and services.